UAE5V KJFK-OMDB
Flight info
| Callsign | UAE5V |
|---|---|
| Flight time | N/A |
| Altitude | 29000 |
| Route | GREKI DCT JUDDS DCT CAM DCT EBONY N633A RIKAL/M084F320 NATS SOVED/N0479F330 DCT LUTOV DCT MAKUX DCT SOSIM L15 MOTOX DCT RUCAC DCT LESDO DCT ETINO DCT DEVDI DCT RIPUS DCT RESIA DCT BELOV DCT LATAN/N0476F350 DCT SALUN N705 MMA P751 DASUM Y234 FYM M872 BDB Y214 RAPMA/N0483F370 DCT KUVSO DCT KATIT DCT PEKEM M628 RIGIL G783 ELUDA/N0476F350 G783 ASPED Q308 KIPOK Q568 IMPED |
| Aircraft | B77W/H-SDE1E2E3FGHIJ2J3J4J5M1RWXY/LB1D1 |
Departure
| Time | N/A |
|---|---|
| Airport | John F. Kennedy International Airport (KJFK) |
Arrival
| Time | 2026-05-06 13:27 |
|---|---|
| Airport | Dubai International Airport (OMDB) |
| Time | Latitude | Longitude | Altitude | Speed | Heading |
|---|---|---|---|---|---|
| 2026-05-06 11:56 | 23.64903 | 45.47608 | 36935 ft | 532 kts | 99° |
| 2026-05-06 11:57 | 23.64233 | 45.55596 | 36922 ft | 530 kts | 99° |
| 2026-05-06 11:57 | 23.63560 | 45.63586 | 36915 ft | 529 kts | 99° |
| 2026-05-06 11:58 | 23.62879 | 45.71591 | 36917 ft | 528 kts | 99° |
| 2026-05-06 11:58 | 23.62201 | 45.79541 | 36909 ft | 528 kts | 99° |
| 2026-05-06 11:59 | 23.61517 | 45.87528 | 36904 ft | 527 kts | 99° |
| 2026-05-06 11:59 | 23.60833 | 45.95453 | 36905 ft | 527 kts | 99° |
| 2026-05-06 12:00 | 23.60140 | 46.03433 | 36904 ft | 527 kts | 99° |
| 2026-05-06 12:00 | 23.59444 | 46.11402 | 36901 ft | 526 kts | 99° |
| 2026-05-06 12:01 | 23.58750 | 46.19309 | 36908 ft | 526 kts | 99° |
| 2026-05-06 12:01 | 23.58050 | 46.27216 | 36895 ft | 527 kts | 99° |
| 2026-05-06 12:02 | 23.57342 | 46.35188 | 36895 ft | 527 kts | 99° |
| 2026-05-06 12:02 | 23.56632 | 46.43145 | 36894 ft | 528 kts | 99° |
| 2026-05-06 12:03 | 23.55920 | 46.51077 | 36883 ft | 528 kts | 99° |
| 2026-05-06 12:03 | 23.55194 | 46.59051 | 36871 ft | 527 kts | 99° |
| 2026-05-06 12:04 | 23.54460 | 46.66990 | 36874 ft | 527 kts | 99° |
| 2026-05-06 12:04 | 23.53720 | 46.74953 | 36867 ft | 527 kts | 99° |
| 2026-05-06 12:05 | 23.52983 | 46.82859 | 36848 ft | 526 kts | 99° |
| 2026-05-06 12:05 | 23.52238 | 46.90818 | 36839 ft | 526 kts | 99° |
| 2026-05-06 12:06 | 23.51490 | 46.98755 | 36834 ft | 526 kts | 99° |
| 2026-05-06 12:06 | 23.50743 | 47.06647 | 36822 ft | 527 kts | 99° |
| 2026-05-06 12:07 | 23.49985 | 47.14606 | 36835 ft | 527 kts | 99° |
| 2026-05-06 12:07 | 23.49221 | 47.22571 | 36827 ft | 534 kts | 99° |
| 2026-05-06 12:08 | 23.48438 | 47.30693 | 36811 ft | 542 kts | 99° |
| 2026-05-06 12:08 | 23.47648 | 47.38867 | 36806 ft | 547 kts | 99° |
| 2026-05-06 12:09 | 23.46844 | 47.47156 | 36811 ft | 551 kts | 99° |
| 2026-05-06 12:09 | 23.46033 | 47.55450 | 36806 ft | 554 kts | 99° |
| 2026-05-06 12:10 | 23.45218 | 47.63817 | 36793 ft | 554 kts | 99° |
| 2026-05-06 12:10 | 23.44402 | 47.72174 | 36782 ft | 553 kts | 99° |
| 2026-05-06 12:11 | 23.43583 | 47.80502 | 36777 ft | 551 kts | 99° |
| 2026-05-06 12:11 | 23.42764 | 47.88777 | 36774 ft | 550 kts | 99° |
| 2026-05-06 12:12 | 23.41943 | 47.97017 | 36781 ft | 551 kts | 99° |
| 2026-05-06 12:12 | 23.41112 | 48.05323 | 36767 ft | 551 kts | 99° |
| 2026-05-06 12:13 | 23.40277 | 48.13626 | 36770 ft | 551 kts | 99° |
| 2026-05-06 12:13 | 23.39443 | 48.21879 | 36756 ft | 550 kts | 99° |
| 2026-05-06 12:14 | 23.38601 | 48.30171 | 36760 ft | 550 kts | 99° |
| 2026-05-06 12:14 | 23.38016 | 48.37074 | 36758 ft | 551 kts | 96° |
| 2026-05-06 12:15 | 23.37682 | 48.45395 | 36759 ft | 552 kts | 94° |
| 2026-05-06 12:15 | 23.37404 | 48.53757 | 36749 ft | 551 kts | 95° |
| 2026-05-06 12:16 | 23.37086 | 48.62095 | 36755 ft | 550 kts | 95° |
| 2026-05-06 12:16 | 23.36743 | 48.70363 | 36751 ft | 549 kts | 95° |
| 2026-05-06 12:17 | 23.36392 | 48.78663 | 36745 ft | 549 kts | 95° |
| 2026-05-06 12:17 | 23.36041 | 48.86961 | 36753 ft | 549 kts | 95° |
| 2026-05-06 12:18 | 23.35687 | 48.95260 | 36747 ft | 548 kts | 95° |
| 2026-05-06 12:18 | 23.35330 | 49.03522 | 36746 ft | 548 kts | 95° |
| 2026-05-06 12:19 | 23.34563 | 49.11758 | 36748 ft | 545 kts | 101° |
| 2026-05-06 12:19 | 23.33350 | 49.19928 | 36750 ft | 546 kts | 102° |
| 2026-05-06 12:20 | 23.32117 | 49.28054 | 36739 ft | 547 kts | 102° |
| 2026-05-06 12:20 | 23.30911 | 49.36245 | 36740 ft | 547 kts | 101° |
| 2026-05-06 12:21 | 23.29735 | 49.44371 | 36737 ft | 546 kts | 101° |
| 2026-05-06 12:21 | 23.28552 | 49.52539 | 36740 ft | 545 kts | 101° |
| 2026-05-06 12:22 | 23.27360 | 49.60714 | 36742 ft | 546 kts | 101° |
| 2026-05-06 12:22 | 23.26170 | 49.68825 | 36739 ft | 546 kts | 101° |
| 2026-05-06 12:23 | 23.24966 | 49.77001 | 36741 ft | 547 kts | 101° |
| 2026-05-06 12:23 | 23.23767 | 49.85119 | 36739 ft | 546 kts | 101° |
| 2026-05-06 12:24 | 23.22557 | 49.93280 | 36738 ft | 545 kts | 101° |
| 2026-05-06 12:24 | 23.21343 | 50.01436 | 36739 ft | 545 kts | 101° |
| 2026-05-06 12:25 | 23.20133 | 50.09540 | 36743 ft | 546 kts | 101° |
| 2026-05-06 12:25 | 23.18908 | 50.17710 | 36738 ft | 546 kts | 101° |
| 2026-05-06 12:26 | 23.17688 | 50.25820 | 36735 ft | 546 kts | 101° |
| 2026-05-06 12:26 | 23.16456 | 50.33980 | 36734 ft | 546 kts | 101° |
| 2026-05-06 12:27 | 23.15221 | 50.42130 | 36733 ft | 546 kts | 101° |
| 2026-05-06 12:27 | 23.13988 | 50.50244 | 36734 ft | 546 kts | 102° |
| 2026-05-06 12:28 | 23.12742 | 50.58404 | 36734 ft | 546 kts | 101° |
| 2026-05-06 12:28 | 23.11494 | 50.66552 | 36730 ft | 546 kts | 101° |
| 2026-05-06 12:29 | 23.10244 | 50.74688 | 36732 ft | 546 kts | 101° |
| 2026-05-06 12:29 | 23.08996 | 50.82777 | 36728 ft | 546 kts | 101° |
| 2026-05-06 12:30 | 23.07736 | 50.90922 | 36726 ft | 546 kts | 101° |
| 2026-05-06 12:30 | 23.06479 | 50.99016 | 36724 ft | 546 kts | 101° |
| 2026-05-06 12:31 | 23.05209 | 51.07164 | 36724 ft | 546 kts | 101° |
| 2026-05-06 12:31 | 23.03946 | 51.15243 | 36724 ft | 545 kts | 101° |
| 2026-05-06 12:32 | 23.02671 | 51.23367 | 36720 ft | 545 kts | 101° |
| 2026-05-06 12:32 | 23.01390 | 51.31499 | 36720 ft | 544 kts | 101° |
| 2026-05-06 12:33 | 23.00117 | 51.39559 | 36719 ft | 544 kts | 101° |
| 2026-05-06 12:33 | 22.98831 | 51.47672 | 36722 ft | 544 kts | 101° |
| 2026-05-06 12:34 | 22.97551 | 51.55720 | 36722 ft | 544 kts | 101° |
| 2026-05-06 12:34 | 22.96256 | 51.63829 | 36723 ft | 544 kts | 102° |
| 2026-05-06 12:35 | 22.94959 | 51.71926 | 36720 ft | 543 kts | 101° |
| 2026-05-06 12:35 | 22.93669 | 51.79960 | 36717 ft | 543 kts | 101° |
| 2026-05-06 12:36 | 22.92365 | 51.88047 | 36720 ft | 543 kts | 101° |
| 2026-05-06 12:36 | 22.91066 | 51.96075 | 36718 ft | 543 kts | 101° |
| 2026-05-06 12:37 | 22.89755 | 52.04152 | 36713 ft | 543 kts | 101° |
| 2026-05-06 12:37 | 22.88441 | 52.12223 | 36709 ft | 543 kts | 102° |
| 2026-05-06 12:38 | 22.87130 | 52.20248 | 36716 ft | 542 kts | 102° |
| 2026-05-06 12:38 | 22.85810 | 52.28308 | 36713 ft | 542 kts | 102° |
| 2026-05-06 12:39 | 22.85157 | 52.32284 | 36692 ft | 527 kts | 102° |
| 2026-05-06 12:39 | 22.84526 | 52.36134 | 36691 ft | 513 kts | 102° |
| 2026-05-06 12:39 | 22.83289 | 52.43627 | 36699 ft | 505 kts | 102° |
| 2026-05-06 12:40 | 22.82259 | 52.51244 | 36713 ft | 515 kts | 94° |
| 2026-05-06 12:40 | 22.82048 | 52.59030 | 36709 ft | 516 kts | 92° |
| 2026-05-06 12:41 | 22.81922 | 52.66749 | 36712 ft | 513 kts | 92° |
| 2026-05-06 12:41 | 22.81757 | 52.74464 | 36719 ft | 512 kts | 92° |
| 2026-05-06 12:42 | 22.81556 | 52.82203 | 36717 ft | 513 kts | 92° |
| 2026-05-06 12:42 | 22.81344 | 52.89913 | 36720 ft | 514 kts | 92° |
| 2026-05-06 12:43 | 22.81131 | 52.97648 | 36718 ft | 513 kts | 92° |
| 2026-05-06 12:43 | 22.80915 | 53.05389 | 36720 ft | 513 kts | 92° |
| 2026-05-06 12:44 | 22.80696 | 53.13127 | 36715 ft | 513 kts | 92° |
| 2026-05-06 12:44 | 22.80474 | 53.20862 | 36720 ft | 513 kts | 92° |
| 2026-05-06 12:45 | 22.80249 | 53.28546 | 36715 ft | 513 kts | 92° |
| 2026-05-06 12:46 | 22.79904 | 53.40124 | 36725 ft | 512 kts | 92° |
| 2026-05-06 12:46 | 22.79668 | 53.47852 | 36718 ft | 513 kts | 92° |
| 2026-05-06 12:47 | 22.79430 | 53.55540 | 36714 ft | 512 kts | 92° |
| 2026-05-06 12:47 | 22.79187 | 53.63277 | 36718 ft | 513 kts | 92° |
| 2026-05-06 12:48 | 22.78942 | 53.70965 | 36721 ft | 513 kts | 92° |
| 2026-05-06 12:48 | 22.78692 | 53.78693 | 36725 ft | 512 kts | 93° |
| 2026-05-06 12:49 | 22.78439 | 53.86407 | 36726 ft | 512 kts | 92° |
| 2026-05-06 12:49 | 22.78183 | 53.94091 | 36722 ft | 512 kts | 93° |
| 2026-05-06 12:50 | 22.78483 | 54.01808 | 36739 ft | 513 kts | 82° |
| 2026-05-06 12:50 | 22.79903 | 54.09397 | 36734 ft | 514 kts | 77° |
| 2026-05-06 12:51 | 22.81503 | 54.16923 | 36732 ft | 513 kts | 77° |
| 2026-05-06 12:51 | 22.83075 | 54.24485 | 36733 ft | 513 kts | 77° |
| 2026-05-06 12:52 | 22.84602 | 54.32017 | 36724 ft | 513 kts | 77° |
| 2026-05-06 12:52 | 22.86124 | 54.39592 | 36738 ft | 513 kts | 77° |
| 2026-05-06 12:53 | 22.87642 | 54.47164 | 36731 ft | 514 kts | 77° |
| 2026-05-06 12:53 | 22.89165 | 54.54759 | 36738 ft | 514 kts | 77° |
| 2026-05-06 12:54 | 22.90669 | 54.62284 | 36730 ft | 514 kts | 77° |
| 2026-05-06 12:54 | 22.92184 | 54.69880 | 36737 ft | 514 kts | 77° |
| 2026-05-06 12:55 | 22.93695 | 54.77474 | 36737 ft | 514 kts | 77° |
| 2026-05-06 12:55 | 22.95190 | 54.85013 | 36732 ft | 514 kts | 77° |
| 2026-05-06 12:56 | 22.96697 | 54.92629 | 36744 ft | 514 kts | 77° |
| 2026-05-06 12:56 | 22.98189 | 55.00191 | 36747 ft | 514 kts | 77° |
| 2026-05-06 12:57 | 22.99683 | 55.07781 | 36739 ft | 513 kts | 77° |
| 2026-05-06 12:57 | 23.01175 | 55.15376 | 36741 ft | 512 kts | 77° |
| 2026-05-06 12:57 | 23.02287 | 55.18992 | 36742 ft | 510 kts | 61° |
| 2026-05-06 12:58 | 23.04276 | 55.22151 | 36766 ft | 507 kts | 44° |
| 2026-05-06 12:58 | 23.06934 | 55.24649 | 36775 ft | 503 kts | 31° |
| 2026-05-06 12:58 | 23.09990 | 55.26455 | 36745 ft | 498 kts | 16° |
| 2026-05-06 12:59 | 23.16611 | 55.28375 | 36754 ft | 495 kts | 10° |
| 2026-05-06 12:59 | 23.23301 | 55.30202 | 36770 ft | 495 kts | 11° |
| 2026-05-06 13:00 | 23.29955 | 55.32122 | 36763 ft | 494 kts | 11° |
| 2026-05-06 13:00 | 23.36570 | 55.34072 | 36765 ft | 494 kts | 11° |
| 2026-05-06 13:01 | 23.43225 | 55.36034 | 36767 ft | 494 kts | 11° |
| 2026-05-06 13:01 | 23.49833 | 55.37979 | 36765 ft | 493 kts | 11° |
| 2026-05-06 13:01 | 23.53133 | 55.38953 | 36582 ft | 486 kts | 11° |
| 2026-05-06 13:02 | 23.56375 | 55.39916 | 36266 ft | 479 kts | 11° |
| 2026-05-06 13:02 | 23.59581 | 55.40870 | 35848 ft | 474 kts | 11° |
| 2026-05-06 13:02 | 23.62760 | 55.41817 | 35371 ft | 471 kts | 11° |
| 2026-05-06 13:02 | 23.65881 | 55.42745 | 34889 ft | 469 kts | 11° |
| 2026-05-06 13:03 | 23.69033 | 55.43683 | 34456 ft | 465 kts | 11° |
| 2026-05-06 13:03 | 23.72149 | 55.44611 | 34037 ft | 462 kts | 11° |
| 2026-05-06 13:03 | 23.74193 | 55.45219 | 33768 ft | 459 kts | 11° |
| 2026-05-06 13:03 | 23.77274 | 55.46137 | 33292 ft | 456 kts | 11° |
| 2026-05-06 13:04 | 23.80330 | 55.47048 | 32814 ft | 453 kts | 11° |
| 2026-05-06 13:04 | 23.83353 | 55.47949 | 32337 ft | 450 kts | 11° |
| 2026-05-06 13:04 | 23.86380 | 55.48851 | 31869 ft | 447 kts | 11° |
| 2026-05-06 13:04 | 23.89338 | 55.49731 | 31426 ft | 445 kts | 11° |
| 2026-05-06 13:05 | 23.92334 | 55.50621 | 30978 ft | 442 kts | 11° |
| 2026-05-06 13:05 | 23.95299 | 55.51502 | 30540 ft | 440 kts | 12° |
| 2026-05-06 13:05 | 23.98227 | 55.52467 | 30100 ft | 440 kts | 18° |
| 2026-05-06 13:05 | 24.01006 | 55.53894 | 29635 ft | 441 kts | 27° |
| 2026-05-06 13:06 | 24.03553 | 55.55682 | 29190 ft | 440 kts | 34° |
| 2026-05-06 13:06 | 24.05884 | 55.57842 | 28789 ft | 437 kts | 40° |
| 2026-05-06 13:06 | 24.08122 | 55.60082 | 28387 ft | 433 kts | 40° |
| 2026-05-06 13:06 | 24.10321 | 55.62314 | 27999 ft | 429 kts | 40° |
| 2026-05-06 13:07 | 24.12505 | 55.64526 | 27583 ft | 426 kts | 40° |
| 2026-05-06 13:07 | 24.14675 | 55.66707 | 27178 ft | 422 kts | 40° |
| 2026-05-06 13:07 | 24.16841 | 55.68869 | 26791 ft | 419 kts | 40° |
| 2026-05-06 13:07 | 24.18963 | 55.70979 | 26410 ft | 416 kts | 40° |
| 2026-05-06 13:08 | 24.21104 | 55.73103 | 26030 ft | 412 kts | 40° |
| 2026-05-06 13:08 | 24.23228 | 55.75210 | 25662 ft | 409 kts | 40° |
| 2026-05-06 13:08 | 24.25337 | 55.77302 | 25307 ft | 406 kts | 40° |
| 2026-05-06 13:08 | 24.27396 | 55.79348 | 24951 ft | 403 kts | 40° |
| 2026-05-06 13:09 | 24.29468 | 55.81407 | 24603 ft | 400 kts | 40° |
| 2026-05-06 13:09 | 24.31528 | 55.83454 | 24249 ft | 397 kts | 40° |
| 2026-05-06 13:09 | 24.33565 | 55.85480 | 23902 ft | 394 kts | 40° |
| 2026-05-06 13:09 | 24.35593 | 55.87499 | 23566 ft | 391 kts | 40° |
| 2026-05-06 13:10 | 24.37603 | 55.89500 | 23203 ft | 388 kts | 40° |
| 2026-05-06 13:10 | 24.39599 | 55.91491 | 22816 ft | 386 kts | 40° |
| 2026-05-06 13:10 | 24.41556 | 55.93445 | 22428 ft | 383 kts | 41° |
| 2026-05-06 13:10 | 24.43519 | 55.95407 | 22047 ft | 380 kts | 40° |
| 2026-05-06 13:11 | 24.45470 | 55.97359 | 21675 ft | 378 kts | 41° |
| 2026-05-06 13:11 | 24.47406 | 55.99296 | 21326 ft | 375 kts | 41° |
| 2026-05-06 13:11 | 24.49326 | 56.01217 | 20964 ft | 372 kts | 41° |
| 2026-05-06 13:11 | 24.51234 | 56.03128 | 20606 ft | 369 kts | 41° |
| 2026-05-06 13:12 | 24.53106 | 56.05002 | 20269 ft | 366 kts | 41° |
| 2026-05-06 13:12 | 24.54987 | 56.06884 | 19933 ft | 363 kts | 41° |
| 2026-05-06 13:12 | 24.56848 | 56.08745 | 19601 ft | 361 kts | 41° |
| 2026-05-06 13:12 | 24.58722 | 56.10571 | 19247 ft | 356 kts | 37° |
| 2026-05-06 13:13 | 24.60822 | 56.11950 | 18836 ft | 356 kts | 23° |
| 2026-05-06 13:13 | 24.63155 | 56.12792 | 18527 ft | 352 kts | 12° |
| 2026-05-06 13:13 | 24.65569 | 56.13239 | 18189 ft | 350 kts | 9° |
| 2026-05-06 13:13 | 24.67980 | 56.13640 | 17824 ft | 348 kts | 9° |
| 2026-05-06 13:14 | 24.70374 | 56.14053 | 17450 ft | 346 kts | 9° |
| 2026-05-06 13:14 | 24.72720 | 56.14475 | 17069 ft | 345 kts | 9° |
| 2026-05-06 13:14 | 24.75093 | 56.14908 | 16665 ft | 344 kts | 9° |
| 2026-05-06 13:14 | 24.77459 | 56.14998 | 16150 ft | 343 kts | 349° |
| 2026-05-06 13:15 | 24.79679 | 56.14057 | 15678 ft | 343 kts | 326° |
| 2026-05-06 13:15 | 24.81459 | 56.12337 | 15329 ft | 339 kts | 308° |
| 2026-05-06 13:15 | 24.82806 | 56.10230 | 14986 ft | 335 kts | 303° |
| 2026-05-06 13:15 | 24.84058 | 56.08093 | 14625 ft | 335 kts | 302° |
| 2026-05-06 13:16 | 24.85301 | 56.05933 | 14292 ft | 334 kts | 301° |
| 2026-05-06 13:16 | 24.86543 | 56.03779 | 13770 ft | 322 kts | 301° |
| 2026-05-06 13:16 | 24.87726 | 56.01741 | 12923 ft | 320 kts | 301° |
| 2026-05-06 13:16 | 24.88933 | 55.99674 | 12016 ft | 319 kts | 302° |
| 2026-05-06 13:17 | 24.90107 | 55.97673 | 11259 ft | 315 kts | 302° |
| 2026-05-06 13:17 | 24.91303 | 55.95644 | 10694 ft | 303 kts | 302° |
| 2026-05-06 13:17 | 24.92439 | 55.93721 | 10198 ft | 292 kts | 302° |
| 2026-05-06 13:17 | 24.93521 | 55.91890 | 9822 ft | 277 kts | 301° |
| 2026-05-06 13:18 | 24.94548 | 55.90151 | 9491 ft | 266 kts | 301° |
| 2026-05-06 13:18 | 24.95576 | 55.88404 | 9191 ft | 279 kts | 301° |
| 2026-05-06 13:18 | 24.96659 | 55.86565 | 8853 ft | 288 kts | 302° |
| 2026-05-06 13:18 | 24.97740 | 55.84733 | 8507 ft | 290 kts | 302° |
| 2026-05-06 13:19 | 24.98843 | 55.82862 | 8141 ft | 290 kts | 302° |
| 2026-05-06 13:19 | 24.99945 | 55.80995 | 7796 ft | 290 kts | 302° |
| 2026-05-06 13:19 | 25.01049 | 55.79123 | 7455 ft | 290 kts | 302° |
| 2026-05-06 13:19 | 25.02091 | 55.77356 | 7123 ft | 291 kts | 302° |
| 2026-05-06 13:20 | 25.03197 | 55.75477 | 6775 ft | 291 kts | 302° |
| 2026-05-06 13:20 | 25.04291 | 55.73620 | 6426 ft | 292 kts | 302° |
| 2026-05-06 13:20 | 25.05390 | 55.71752 | 6240 ft | 286 kts | 302° |
| 2026-05-06 13:20 | 25.06461 | 55.69933 | 6082 ft | 279 kts | 302° |
| 2026-05-06 13:21 | 25.07513 | 55.68146 | 5834 ft | 276 kts | 302° |
| 2026-05-06 13:21 | 25.08598 | 55.66392 | 5550 ft | 275 kts | 303° |
| 2026-05-06 13:21 | 25.09646 | 55.64647 | 5182 ft | 269 kts | 301° |
| 2026-05-06 13:21 | 25.10615 | 55.62935 | 4806 ft | 256 kts | 301° |
| 2026-05-06 13:22 | 25.11509 | 55.61324 | 4615 ft | 236 kts | 300° |
| 2026-05-06 13:22 | 25.12345 | 55.59811 | 4331 ft | 228 kts | 300° |
| 2026-05-06 13:22 | 25.13149 | 55.58361 | 4174 ft | 219 kts | 300° |
| 2026-05-06 13:22 | 25.13929 | 55.56950 | 3866 ft | 218 kts | 300° |
| 2026-05-06 13:23 | 25.14728 | 55.55506 | 3482 ft | 216 kts | 301° |
| 2026-05-06 13:23 | 25.15486 | 55.54141 | 3182 ft | 204 kts | 301° |
| 2026-05-06 13:23 | 25.16216 | 55.52820 | 2825 ft | 199 kts | 300° |
| 2026-05-06 13:23 | 25.16908 | 55.51573 | 2574 ft | 186 kts | 301° |
| 2026-05-06 13:24 | 25.17553 | 55.50408 | 2284 ft | 171 kts | 301° |
| 2026-05-06 13:24 | 25.18163 | 55.49308 | 2089 ft | 163 kts | 302° |
| 2026-05-06 13:24 | 25.18740 | 55.48261 | 2001 ft | 159 kts | 302° |
| 2026-05-06 13:24 | 25.19319 | 55.47217 | 1725 ft | 156 kts | 302° |
| 2026-05-06 13:25 | 25.19861 | 55.46238 | 1467 ft | 145 kts | 304° |
| 2026-05-06 13:25 | 25.20392 | 55.45279 | 1273 ft | 148 kts | 304° |
| 2026-05-06 13:25 | 25.20934 | 55.44305 | 1089 ft | 154 kts | 302° |
| 2026-05-06 13:25 | 25.21448 | 55.43369 | 888 ft | 151 kts | 303° |
| 2026-05-06 13:26 | 25.21945 | 55.42469 | 690 ft | 151 kts | 306° |
| 2026-05-06 13:26 | 25.22481 | 55.41494 | 450 ft | 150 kts | 306° |
| 2026-05-06 13:26 | 25.23021 | 55.40517 | 277 ft | 149 kts | 305° |
| 2026-05-06 13:26 | 25.23556 | 55.39543 | 85 ft | 145 kts | 306° |
| 2026-05-06 13:27 | 25.24040 | 55.38697 | 35 ft | 127 kts | 301° |
| 2026-05-06 13:27 | 25.24419 | 55.38007 | 35 ft | 83 kts | 302° |
| 2026-05-06 13:27 | 25.24609 | 55.37569 | 33 ft | 56 kts | 275° |
| 2026-05-06 13:27 | 25.24647 | 55.37229 | 28 ft | 27 kts | 297° |
| 2026-05-06 13:28 | 25.24745 | 55.37049 | 28 ft | 27 kts | 302° |
| 2026-05-06 13:28 | 25.24843 | 55.36867 | 28 ft | 27 kts | 293° |
| 2026-05-06 13:28 | 25.24896 | 55.36664 | 27 ft | 27 kts | 294° |
| 2026-05-06 13:28 | 25.24993 | 55.36483 | 27 ft | 25 kts | 301° |
| 2026-05-06 13:29 | 25.25029 | 55.36411 | 27 ft | 5 kts | 279° |
| 2026-05-06 13:29 | 25.25010 | 55.36380 | 27 ft | 5 kts | 218° |
| 2026-05-06 13:29 | 25.24970 | 55.36351 | 26 ft | 8 kts | 213° |
| 2026-05-06 13:29 | 25.24922 | 55.36317 | 26 ft | 7 kts | 212° |
| 2026-05-06 13:30 | 25.24892 | 55.36297 | 31 ft | 2 kts | 211° |
| 2026-05-06 13:30 | 25.24886 | 55.36293 | 30 ft | 0 kts | 211° |